This is the latest recevied weather packets stored in our database for station/object OE6ACM-14. If no packets are shown the sender has not sent any weather packets the latest 10 day(s).
| Time | Temp. | Humidity | Pressure | Rain* | Wind** | Luminosity | Snow |
|---|---|---|---|---|---|---|---|
| 1787819865 | 38.33° C | 29% | 929.1 hPa | - | - | - | - |
| 1787819565 | 35.56° C | 31% | 929.1 hPa | - | - | - | - |
| 1787819265 | 35.56° C | 31% | 929.2 hPa | - | - | - | - |
| 1787818965 | 34.44° C | 33% | 929.2 hPa | - | - | - | - |
| 1787818665 | 33.89° C | 33% | 929.2 hPa | - | - | - | - |
| 1787818365 | 35° C | 32% | 929.2 hPa | - | - | - | - |
| 1787818065 | 35° C | 32% | 929.3 hPa | - | - | - | - |
| 1787817765 | 39.44° C | 27% | 929.3 hPa | - | - | - | - |
| 1787817465 | 39.44° C | 27% | 929.3 hPa | - | - | - | - |
| 1787817165 | 39.44° C | 29% | 929.3 hPa | - | - | - | - |
| 1787816865 | 38.33° C | 30% | 929.4 hPa | - | - | - | - |
| 1787816565 | 35° C | 35% | 929.5 hPa | - | - | - | - |
| 1787816265 | 33.89° C | 36% | 929.6 hPa | - | - | - | - |
| 1787815965 | 34.44° C | 35% | 929.6 hPa | - | - | - | - |
| 1787815665 | 31.11° C | 43% | 929.5 hPa | - | - | - | - |
| 1787815365 | 28.89° C | 46% | 929.6 hPa | - | - | - | - |
| 1787815065 | 28.33° C | 49% | 929.5 hPa | - | - | - | - |
| 1787814765 | 26.67° C | 51% | 929.4 hPa | - | - | - | - |
| 1787814076 | 25° C | 61% | 929.5 hPa | - | - | - | - |
| 1787813776 | 23.89° C | 67% | 929.6 hPa | - | - | - | - |
| 1787813476 | 22.22° C | 71% | 929.6 hPa | - | - | - | - |
| 1787813176 | 20.56° C | 77% | 929.7 hPa | - | - | - | - |
| 1787812876 | 18.89° C | 78% | 929.8 hPa | - | - | - | - |
| 1787812576 | 18.33° C | 78% | 929.8 hPa | - | - | - | - |
| 1787812276 | 17.78° C | 80% | 929.9 hPa | - | - | - | - |
* Rain since midnight (hover to see other rain measurements)
** Current wind speed in m/s (hover to see current wind gust speed)